createdAt,value
2018-05-02T00:00:08.266Z,94511.76
2018-05-02T00:02:36.754Z,94524.45
2018-05-02T00:05:05.147Z,94514.63
2018-05-02T00:07:33.584Z,94518.50
2018-05-02T00:10:02.126Z,94514.64
2018-05-02T00:12:30.577Z,94513.91
2018-05-02T00:14:58.987Z,94512.30
2018-05-02T00:17:27.560Z,94524.12
2018-05-02T00:19:55.992Z,94523.23
2018-05-02T00:22:24.395Z,94524.80
2018-05-02T00:24:52.858Z,94529.88
2018-05-02T00:27:21.278Z,94530.77
2018-05-02T00:29:49.746Z,94526.16
2018-05-02T00:32:18.158Z,94526.03
2018-05-02T00:34:46.627Z,94518.42
2018-05-02T00:37:15.051Z,94520.16
2018-05-02T00:39:43.480Z,94519.59
2018-05-02T00:42:11.939Z,94520.38
2018-05-02T00:44:40.355Z,94521.70
2018-05-02T00:47:08.817Z,94532.20
2018-05-02T00:49:37.273Z,94538.24
2018-05-02T00:52:05.701Z,94521.30
2018-05-02T00:54:34.147Z,94526.44
2018-05-02T00:57:02.589Z,94526.69
2018-05-02T00:59:31.003Z,94521.97
2018-05-02T01:01:59.461Z,94529.70
2018-05-02T01:04:27.858Z,94524.08
2018-05-02T01:06:56.327Z,94520.02
2018-05-02T01:09:24.757Z,94524.45
2018-05-02T01:11:53.192Z,94527.77
2018-05-02T01:14:21.602Z,94523.41
2018-05-02T01:16:50.058Z,94525.91
2018-05-02T01:19:18.483Z,94528.02
2018-05-02T01:21:46.949Z,94531.80
2018-05-02T01:24:15.515Z,94525.38
2018-05-02T01:26:43.941Z,94535.84
2018-05-02T01:29:12.347Z,94526.29
2018-05-02T01:31:40.808Z,94524.45
2018-05-02T01:34:09.213Z,94561.38
2018-05-02T01:36:37.703Z,94536.86
2018-05-02T01:39:06.164Z,94536.23
2018-05-02T01:41:34.565Z,94536.08
2018-05-02T01:44:02.984Z,94530.92
2018-05-02T01:46:31.426Z,94527.97
2018-05-02T01:49:11.692Z,94531.14
2018-05-02T01:51:40.119Z,94531.60
2018-05-02T01:54:08.560Z,94533.31
2018-05-02T01:56:36.984Z,94534.96
2018-05-02T01:59:05.376Z,94532.39
2018-05-02T02:01:33.779Z,94535.73
2018-05-02T02:04:02.223Z,94524.50
2018-05-02T02:06:30.672Z,94526.86
2018-05-02T02:08:59.115Z,94521.97
2018-05-02T02:11:27.509Z,94527.63
2018-05-02T02:13:55.952Z,94518.56
2018-05-02T02:16:24.412Z,94520.25
2018-05-02T02:18:52.820Z,94520.88
2018-05-02T02:21:21.287Z,94521.30
2018-05-02T02:23:49.751Z,94519.34
2018-05-02T02:26:19.157Z,94526.41
2018-05-02T02:28:47.582Z,94524.67
2018-05-02T02:31:16.594Z,94532.78
2018-05-02T02:33:46.649Z,94535.31
2018-05-02T02:36:16.498Z,94529.70
2018-05-02T02:38:45.624Z,94530.88
2018-05-02T02:41:15.506Z,94536.67
2018-05-02T02:43:43.906Z,94535.48
2018-05-02T02:46:12.343Z,94521.71
2018-05-02T02:48:40.769Z,94546.65
2018-05-02T02:51:09.199Z,94540.00
2018-05-02T02:53:37.674Z,94544.69
2018-05-02T02:56:06.104Z,94547.33
2018-05-02T02:58:34.571Z,94552.50
2018-05-02T03:01:03.029Z,94556.67
2018-05-02T03:03:31.486Z,94558.09
2018-05-02T03:05:59.890Z,94556.75
2018-05-02T03:08:28.294Z,94559.16
2018-05-02T03:10:56.712Z,94562.86
2018-05-02T03:13:25.147Z,94542.75
2018-05-02T03:15:53.639Z,94565.05
2018-05-02T03:18:22.058Z,94560.13
2018-05-02T03:20:50.502Z,94569.50
2018-05-02T03:23:18.964Z,94574.44
2018-05-02T03:25:47.431Z,94576.78
2018-05-02T03:28:16.075Z,94567.73
2018-05-02T03:30:44.589Z,94574.28
2018-05-02T03:33:13.008Z,94573.34
2018-05-02T03:35:41.404Z,94582.67
2018-05-02T03:38:09.899Z,94576.34
2018-05-02T03:40:38.324Z,94586.12
2018-05-02T03:43:06.783Z,94585.97
2018-05-02T03:45:35.251Z,94582.08
2018-05-02T03:48:03.676Z,94583.38
2018-05-02T03:50:32.159Z,94583.97
2018-05-02T03:53:00.586Z,94582.33
2018-05-02T03:55:29.075Z,94591.91
2018-05-02T03:57:57.559Z,94582.84
2018-05-02T04:00:37.816Z,94581.36
2018-05-02T04:03:18.104Z,94587.53
2018-05-02T04:05:58.488Z,94588.20
2018-05-02T04:08:26.945Z,94588.51
2018-05-02T04:10:55.496Z,94588.89
2018-05-02T04:13:23.953Z,94589.80
2018-05-02T04:15:52.369Z,94587.24
2018-05-02T04:18:20.839Z,94593.93
2018-05-02T04:20:49.261Z,94593.84
2018-05-02T04:23:17.703Z,94596.07
2018-05-02T04:25:46.144Z,94586.74
2018-05-02T04:28:14.623Z,94596.07
2018-05-02T04:30:43.087Z,94594.81
2018-05-02T04:33:11.494Z,94594.64
2018-05-02T04:35:39.953Z,94597.66
2018-05-02T04:38:08.401Z,94601.66
2018-05-02T04:40:36.850Z,94600.05
2018-05-02T04:43:05.299Z,94598.61
2018-05-02T04:45:33.770Z,94596.57
2018-05-02T04:48:02.192Z,94604.48
2018-05-02T04:50:30.724Z,94606.47
2018-05-02T04:52:59.423Z,94602.11
2018-05-02T04:55:27.956Z,94594.74
2018-05-02T04:57:56.317Z,94599.69
2018-05-02T05:00:24.800Z,94594.33
2018-05-02T05:02:53.295Z,94595.17
2018-05-02T05:05:21.741Z,94594.09
2018-05-02T05:07:50.174Z,94594.09
2018-05-02T05:10:19.528Z,94594.75
2018-05-02T05:12:47.982Z,94595.56
2018-05-02T05:15:16.511Z,94587.03
2018-05-02T05:17:44.963Z,94587.08
2018-05-02T05:20:13.715Z,94593.39
2018-05-02T05:22:42.200Z,94593.61
2018-05-02T05:25:10.651Z,94595.30
2018-05-02T05:27:39.055Z,94601.42
2018-05-02T05:30:07.508Z,94604.37
2018-05-02T05:32:35.967Z,94605.75
2018-05-02T05:35:04.388Z,94583.41
2018-05-02T05:37:33.057Z,94601.30
2018-05-02T05:40:01.743Z,94598.97
2018-05-02T05:42:30.237Z,94604.57
2018-05-02T05:44:58.712Z,94600.20
2018-05-02T05:47:27.192Z,94606.55
2018-05-02T05:49:55.612Z,94583.00
2018-05-02T05:52:24.070Z,94603.73
2018-05-02T05:54:52.638Z,94609.23
2018-05-02T05:57:21.075Z,94605.42
2018-05-02T05:59:49.489Z,94602.11
2018-05-02T06:02:17.932Z,94605.16
2018-05-02T06:04:46.391Z,94604.07
2018-05-02T06:07:14.865Z,94608.31
2018-05-02T06:09:43.328Z,94607.92
2018-05-02T06:12:11.815Z,94602.97
2018-05-02T06:14:40.274Z,94601.52
2018-05-02T06:17:08.781Z,94599.24
2018-05-02T06:19:37.174Z,94597.91
2018-05-02T06:22:05.624Z,94601.33
2018-05-02T06:24:34.087Z,94585.59
2018-05-02T06:27:02.576Z,94598.55
2018-05-02T06:29:31.035Z,94595.92
2018-05-02T06:31:59.461Z,94590.91
2018-05-02T06:34:27.935Z,94598.83
2018-05-02T06:36:56.348Z,94588.17
2018-05-02T06:39:24.799Z,94572.75
2018-05-02T06:41:53.382Z,94588.81
2018-05-02T06:44:21.864Z,94588.20
2018-05-02T06:46:50.299Z,94586.56
2018-05-02T06:49:18.796Z,94589.05
2018-05-02T06:51:47.227Z,94592.38
2018-05-02T06:54:15.650Z,94588.30
2018-05-02T06:56:44.096Z,94586.41
2018-05-02T06:59:12.487Z,94585.25
2018-05-02T07:01:41.052Z,94583.56
2018-05-02T07:04:09.463Z,94585.41
2018-05-02T07:06:37.929Z,94581.83
2018-05-02T07:09:12.316Z,94569.19
2018-05-02T07:11:40.743Z,94584.63
2018-05-02T07:14:09.190Z,94566.37
2018-05-02T07:16:37.605Z,94581.33
2018-05-02T07:19:06.090Z,94583.88
2018-05-02T07:21:34.475Z,94561.64
2018-05-02T07:24:03.011Z,94581.85
2018-05-02T07:26:31.397Z,94581.23
2018-05-02T07:28:59.790Z,94581.63
2018-05-02T07:31:28.215Z,94578.94
2018-05-02T07:33:56.625Z,94571.19
2018-05-02T07:36:25.056Z,94573.55
2018-05-02T07:38:53.488Z,94567.02
2018-05-02T07:41:21.943Z,94569.52
2018-05-02T07:43:50.359Z,94570.25
2018-05-02T07:46:18.767Z,94564.03
2018-05-02T07:48:47.224Z,94560.65
2018-05-02T07:51:15.710Z,94561.91
2018-05-02T07:53:44.122Z,94563.26
2018-05-02T07:56:12.684Z,94555.42
2018-05-02T07:58:41.124Z,94552.53
2018-05-02T08:01:09.572Z,94552.54
2018-05-02T08:03:38.008Z,94548.30
2018-05-02T08:06:06.460Z,94544.98
2018-05-02T08:08:34.864Z,94543.06
2018-05-02T08:11:03.318Z,94542.30
2018-05-02T08:13:31.766Z,94537.96
2018-05-02T08:16:00.156Z,94527.45
2018-05-02T08:18:28.595Z,94528.09
2018-05-02T08:20:56.980Z,94524.11
2018-05-02T08:23:25.439Z,94521.39
2018-05-02T08:25:53.860Z,94525.48
2018-05-02T08:28:22.263Z,94515.61
2018-05-02T08:30:50.698Z,94515.16
2018-05-02T08:33:19.178Z,94504.47
2018-05-02T08:35:47.627Z,94515.02
2018-05-02T08:38:16.085Z,94512.75
2018-05-02T08:40:44.484Z,94509.77
2018-05-02T08:43:12.898Z,94500.20
2018-05-02T08:45:41.299Z,94515.97
2018-05-02T08:48:09.702Z,94513.28
2018-05-02T08:50:38.159Z,94509.58
2018-05-02T08:53:06.589Z,94509.08
2018-05-02T08:55:35.016Z,94507.52
2018-05-02T08:58:03.441Z,94511.52
2018-05-02T09:00:31.905Z,94507.29
2018-05-02T09:03:00.383Z,94508.91
2018-05-02T09:05:28.807Z,94510.25
2018-05-02T09:07:57.243Z,94505.52
2018-05-02T09:10:25.659Z,94502.90
2018-05-02T09:12:54.083Z,94508.47
2018-05-02T09:15:22.540Z,94500.72
2018-05-02T09:17:50.949Z,94472.25
2018-05-02T09:20:19.335Z,94500.94
2018-05-02T09:22:47.758Z,94499.99
2018-05-02T09:25:16.235Z,94493.21
2018-05-02T09:27:44.656Z,94493.25
2018-05-02T09:30:13.120Z,94493.62
2018-05-02T09:32:41.556Z,94489.83
2018-05-02T09:35:10.103Z,94491.15
2018-05-02T09:37:38.618Z,94481.95
2018-05-02T09:40:07.110Z,94444.90
2018-05-02T09:42:35.519Z,94477.18
2018-05-02T09:45:03.966Z,94481.08
2018-05-02T09:47:32.457Z,94477.28
2018-05-02T09:50:00.949Z,94458.11
2018-05-02T09:52:29.361Z,94467.20
2018-05-02T09:54:57.811Z,94472.80
2018-05-02T09:57:26.215Z,94467.34
2018-05-02T09:59:54.652Z,94458.25
2018-05-02T10:02:23.137Z,94460.53
2018-05-02T10:04:51.627Z,94460.09
2018-05-02T10:07:20.158Z,94448.52
2018-05-02T10:09:49.675Z,94446.91
2018-05-02T10:12:18.084Z,94450.13
2018-05-02T10:14:46.529Z,94449.64
2018-05-02T10:17:14.928Z,94439.91
2018-05-02T10:19:43.519Z,94445.07
2018-05-02T10:22:11.897Z,94438.98
2018-05-02T10:24:40.354Z,94440.02
2018-05-02T10:27:08.807Z,94438.16
2018-05-02T10:29:37.323Z,94438.38
2018-05-02T10:32:05.751Z,94436.30
2018-05-02T10:34:34.185Z,94429.22
2018-05-02T10:37:02.740Z,94431.85
2018-05-02T10:39:31.096Z,94430.41
2018-05-02T10:41:59.568Z,94427.70
2018-05-02T10:44:27.967Z,94427.11
2018-05-02T10:46:56.406Z,94427.47
2018-05-02T10:49:24.815Z,94413.87
2018-05-02T10:51:53.271Z,94417.70
2018-05-02T10:54:21.831Z,94416.15
2018-05-02T10:56:50.264Z,94414.42
2018-05-02T10:59:18.641Z,94411.88
2018-05-02T11:01:47.079Z,94404.05
2018-05-02T11:04:15.559Z,94404.52
2018-05-02T11:06:44.035Z,94407.03
2018-05-02T11:09:12.460Z,94400.09
2018-05-02T11:11:40.952Z,94394.95
2018-05-02T11:14:09.355Z,94397.70
2018-05-02T11:16:37.817Z,94400.67
2018-05-02T11:19:06.290Z,94397.55
2018-05-02T11:21:34.769Z,94392.08
2018-05-02T11:24:03.203Z,94400.30
2018-05-02T11:26:31.647Z,94390.42
2018-05-02T11:29:00.107Z,94390.87
2018-05-02T11:31:28.521Z,94375.56
2018-05-02T11:33:56.956Z,94382.63
2018-05-02T11:36:25.355Z,94372.71
2018-05-02T11:38:54.126Z,94372.62
2018-05-02T11:41:22.540Z,94364.70
2018-05-02T11:43:50.960Z,94351.75
2018-05-02T11:46:19.461Z,94352.61
2018-05-02T11:48:48.056Z,94362.83
2018-05-02T11:51:16.491Z,94342.09
2018-05-02T11:53:44.920Z,94337.06
2018-05-02T11:56:13.376Z,94327.08
2018-05-02T11:58:41.858Z,94333.38
2018-05-02T12:01:10.279Z,94322.83
2018-05-02T12:03:38.759Z,94315.37
2018-05-02T12:06:07.216Z,94329.06
2018-05-02T12:08:35.623Z,94320.72
2018-05-02T12:11:04.079Z,94315.39
2018-05-02T12:13:32.505Z,94312.21
2018-05-02T12:16:00.971Z,94309.88
2018-05-02T12:18:29.397Z,94301.91
2018-05-02T12:20:57.888Z,94294.42
2018-05-02T12:23:26.318Z,94299.39
2018-05-02T12:25:54.741Z,94273.30
2018-05-02T12:28:23.171Z,94287.01
2018-05-02T12:30:51.617Z,94288.83
2018-05-02T12:33:20.039Z,94286.30
2018-05-02T12:35:48.532Z,94278.64
2018-05-02T12:38:16.922Z,94260.77
2018-05-02T12:40:45.373Z,94277.91
2018-05-02T12:43:13.815Z,94271.11
2018-05-02T12:45:42.250Z,94258.30
2018-05-02T12:48:10.667Z,94256.59
2018-05-02T12:50:39.136Z,94253.92
2018-05-02T12:53:07.539Z,94250.61
2018-05-02T12:55:35.959Z,94236.20
2018-05-02T12:58:04.398Z,94242.60
2018-05-02T13:00:33.375Z,94222.12
2018-05-02T13:03:01.782Z,94237.19
2018-05-02T13:05:30.180Z,94238.69
2018-05-02T13:07:58.736Z,94242.56
2018-05-02T13:10:27.161Z,94245.46
2018-05-02T13:12:55.855Z,94244.48
2018-05-02T13:15:24.384Z,94232.63
2018-05-02T13:17:52.799Z,94237.89
2018-05-02T13:20:21.187Z,94231.56
2018-05-02T13:22:49.631Z,94240.56
2018-05-02T13:25:18.101Z,94230.23
2018-05-02T13:27:46.911Z,94226.67
2018-05-02T13:30:15.339Z,94215.30
2018-05-02T13:32:43.746Z,94220.55
2018-05-02T13:35:12.148Z,94222.78
2018-05-02T13:37:40.591Z,94218.16
2018-05-02T13:40:09.011Z,94226.72
2018-05-02T13:42:37.482Z,94217.52
2018-05-02T13:45:06.070Z,94220.69
2018-05-02T13:47:34.524Z,94225.05
2018-05-02T13:50:02.993Z,94201.39
2018-05-02T13:52:31.718Z,94212.92
2018-05-02T13:55:00.190Z,94211.41
2018-05-02T13:57:28.611Z,94209.47
2018-05-02T13:59:57.094Z,94226.01
2018-05-02T14:02:25.574Z,94228.20
2018-05-02T14:04:54.011Z,94229.48
2018-05-02T14:07:22.452Z,94233.91
2018-05-02T14:09:50.870Z,94227.54
2018-05-02T14:12:19.310Z,94212.84
2018-05-02T14:14:47.736Z,94235.56
2018-05-02T14:17:16.192Z,94231.82
2018-05-02T14:19:44.629Z,94224.78
2018-05-02T14:22:13.433Z,94241.38
2018-05-02T14:24:42.012Z,94238.59
2018-05-02T14:27:10.451Z,94252.20
2018-05-02T14:29:38.931Z,94262.98
2018-05-02T14:32:07.424Z,94267.13
2018-05-02T14:34:35.865Z,94266.08
2018-05-02T14:37:04.332Z,94260.42
2018-05-02T14:39:32.882Z,94227.95
2018-05-02T14:42:01.413Z,94253.03
2018-05-02T14:44:29.842Z,94252.84
2018-05-02T14:46:59.099Z,94262.40
2018-05-02T14:49:27.559Z,94269.20
2018-05-02T14:51:56.045Z,94268.02
2018-05-02T14:54:24.529Z,94267.36
2018-05-02T14:56:52.961Z,94271.95
2018-05-02T14:59:21.420Z,94263.67
2018-05-02T15:01:50.815Z,94273.69
2018-05-02T15:06:48.710Z,94279.45
2018-05-02T15:09:17.119Z,94284.30
2018-05-02T15:11:45.827Z,94294.92
2018-05-02T15:14:14.492Z,94287.43
2018-05-02T15:16:42.928Z,94293.68
2018-05-02T15:19:11.565Z,94299.91
2018-05-02T15:21:39.970Z,94302.88
2018-05-02T15:24:08.423Z,94288.57
2018-05-02T15:26:36.938Z,94290.69
2018-05-02T15:29:05.364Z,94294.08
2018-05-02T15:31:33.891Z,94302.06
2018-05-02T15:34:02.323Z,94301.84
2018-05-02T15:36:30.832Z,94299.45
2018-05-02T15:38:59.284Z,94299.70
2018-05-02T15:41:27.761Z,94304.16
2018-05-02T15:43:56.259Z,94301.05
2018-05-02T15:46:24.692Z,94308.95
2018-05-02T15:48:53.138Z,94305.23
2018-05-02T15:51:21.558Z,94306.45
2018-05-02T15:53:50.011Z,94314.58
2018-05-02T15:56:18.447Z,94309.47
2018-05-02T15:58:46.858Z,94312.23
2018-05-02T16:01:15.268Z,94314.61
2018-05-02T16:03:43.699Z,94321.50
2018-05-02T16:06:12.140Z,94312.91
2018-05-02T16:08:40.559Z,94303.72
2018-05-02T16:11:09.021Z,94321.03
2018-05-02T16:13:37.448Z,94320.14
2018-05-02T16:16:05.954Z,94324.80
2018-05-02T16:18:34.375Z,94324.55
2018-05-02T16:21:02.839Z,94326.90
2018-05-02T16:23:31.263Z,94321.35
2018-05-02T16:25:59.732Z,94322.61
2018-05-02T16:28:28.154Z,94319.20
2018-05-02T16:30:56.591Z,94297.67
2018-05-02T16:33:25.623Z,94310.62
2018-05-02T16:35:54.059Z,94317.58
2018-05-02T16:38:22.659Z,94308.44
2018-05-02T16:40:51.491Z,94324.67
2018-05-02T16:43:20.038Z,94325.84
2018-05-02T16:45:48.443Z,94323.41
2018-05-02T16:48:17.252Z,94320.67
2018-05-02T16:50:45.651Z,94321.77
2018-05-02T16:53:14.035Z,94315.64
2018-05-02T16:55:42.488Z,94307.92
2018-05-02T16:58:10.893Z,94297.06
2018-05-02T17:00:39.513Z,94294.95
2018-05-02T17:03:09.263Z,94298.56
2018-05-02T17:05:37.651Z,94305.49
2018-05-02T17:08:06.079Z,94304.94
2018-05-02T17:10:34.564Z,94305.16
2018-05-02T17:13:02.969Z,94304.61
2018-05-02T17:15:31.442Z,94308.84
2018-05-02T17:18:00.158Z,94302.31
2018-05-02T17:20:28.568Z,94313.50
2018-05-02T17:22:56.973Z,94307.28
2018-05-02T17:25:25.707Z,94304.89
2018-05-02T17:27:54.124Z,94301.62
2018-05-02T17:30:22.549Z,94306.66
2018-05-02T17:32:51.244Z,94300.89
2018-05-02T17:35:19.744Z,94305.58
2018-05-02T17:37:48.155Z,94304.52
2018-05-02T17:40:16.916Z,94314.42
2018-05-02T17:42:45.311Z,94307.66
2018-05-02T17:45:13.711Z,94309.80
2018-05-02T17:47:42.748Z,94310.45
2018-05-02T17:50:11.153Z,94319.47
2018-05-02T17:52:39.618Z,94312.98
2018-05-02T17:55:08.295Z,94316.89
2018-05-02T17:57:36.738Z,94317.20
2018-05-02T18:00:05.203Z,94320.39
2018-05-02T18:02:33.971Z,94311.85
2018-05-02T18:05:02.402Z,94320.66
2018-05-02T18:07:30.827Z,94300.38
2018-05-02T18:09:59.294Z,94324.15
2018-05-02T18:12:27.700Z,94326.80
2018-05-02T18:14:56.148Z,94328.72
2018-05-02T18:17:24.575Z,94327.15
2018-05-02T18:19:52.975Z,94335.20
2018-05-02T18:22:21.430Z,94337.89
2018-05-02T18:24:50.048Z,94337.66
2018-05-02T18:27:18.452Z,94317.19
2018-05-02T18:29:46.913Z,94325.98
2018-05-02T18:32:15.396Z,94347.59
2018-05-02T18:34:43.789Z,94345.69
2018-05-02T18:37:12.248Z,94350.81
2018-05-02T18:39:40.651Z,94348.48
2018-05-02T18:42:09.083Z,94349.89
2018-05-02T18:44:37.565Z,94354.14
2018-05-02T18:47:06.001Z,94351.38
2018-05-02T18:49:34.429Z,94355.09
2018-05-02T18:52:02.884Z,94367.30
2018-05-02T18:54:31.311Z,94364.78
2018-05-02T18:56:59.695Z,94356.72
2018-05-02T18:59:28.203Z,94346.45
2018-05-02T19:01:56.632Z,94333.27
2018-05-02T19:04:25.082Z,94368.20
2018-05-02T19:06:53.537Z,94374.09
2018-05-02T19:09:21.934Z,94367.78
2018-05-02T19:11:50.372Z,94365.17
2018-05-02T19:14:18.866Z,94367.25
2018-05-02T19:16:47.336Z,94357.70
2018-05-02T19:19:21.489Z,94362.25
2018-05-02T19:21:50.014Z,94366.47
2018-05-02T19:24:18.444Z,94369.57
2018-05-02T19:26:46.869Z,94368.33
2018-05-02T19:29:15.316Z,94367.55
2018-05-02T19:31:49.343Z,94367.09
2018-05-02T19:34:17.899Z,94367.48
2018-05-02T19:36:46.359Z,94374.00
2018-05-02T19:39:14.799Z,94360.86
2018-05-02T19:41:48.863Z,94361.70
2018-05-02T19:44:17.379Z,94345.50
2018-05-02T19:46:45.760Z,94351.05
2018-05-02T19:49:14.191Z,94328.68
2018-05-02T19:51:48.125Z,94352.53
2018-05-02T19:54:16.589Z,94353.95
2018-05-02T19:56:44.999Z,94351.98
2018-05-02T19:59:13.798Z,94341.61
2018-05-02T20:01:47.786Z,94340.19
2018-05-02T20:04:16.255Z,94338.96
2018-05-02T20:06:44.662Z,94332.81
2018-05-02T20:09:19.200Z,94338.19
2018-05-02T20:11:53.302Z,94333.52
2018-05-02T20:14:21.761Z,94334.91
2018-05-02T20:16:50.157Z,94327.42
2018-05-02T20:19:18.619Z,94335.67
2018-05-02T20:21:47.560Z,94333.86
2018-05-02T20:24:15.952Z,94339.91
2018-05-02T20:26:44.393Z,94336.83
2018-05-02T20:29:13.104Z,94328.27
2018-05-02T20:31:41.518Z,94328.25
2018-05-02T20:34:09.962Z,94324.24
2018-05-02T20:36:38.806Z,94332.13
2018-05-02T20:39:07.187Z,94341.01
2018-05-02T20:41:35.606Z,94329.50
2018-05-02T20:44:04.412Z,94324.97
2018-05-02T20:46:32.909Z,94327.12
2018-05-02T20:49:01.273Z,94337.70
2018-05-02T20:51:29.734Z,94322.41
2018-05-02T20:53:58.201Z,94323.23
2018-05-02T20:56:26.591Z,94329.89
2018-05-02T20:58:54.999Z,94326.38
2018-05-02T21:01:23.417Z,94329.91
2018-05-02T21:03:51.802Z,94324.69
2018-05-02T21:06:20.209Z,94328.02
2018-05-02T21:08:48.614Z,94336.98
2018-05-02T21:11:17.052Z,94338.05
2018-05-02T21:13:45.452Z,94339.55
2018-05-02T21:16:13.840Z,94339.84
2018-05-02T21:18:42.263Z,94339.16
2018-05-02T21:21:10.900Z,94343.52
2018-05-02T21:23:39.346Z,94342.44
2018-05-02T21:26:07.782Z,94343.08
2018-05-02T21:28:36.199Z,94327.23
2018-05-02T21:31:04.676Z,94352.88
2018-05-02T21:33:33.011Z,94357.08
2018-05-02T21:36:01.496Z,94357.80
2018-05-02T21:38:29.904Z,94368.83
2018-05-02T21:40:58.288Z,94375.47
2018-05-02T21:43:26.722Z,94367.81
2018-05-02T21:45:55.101Z,94365.06
2018-05-02T21:48:23.539Z,94394.16
2018-05-02T21:50:51.969Z,94375.80
2018-05-02T21:53:20.410Z,94386.16
2018-05-02T21:55:48.831Z,94386.08
2018-05-02T21:58:17.233Z,94384.09
2018-05-02T22:00:45.697Z,94385.72
2018-05-02T22:03:14.097Z,94381.27
2018-05-02T22:05:42.575Z,94387.62
2018-05-02T22:08:10.966Z,94388.58
2018-05-02T22:10:39.346Z,94383.08
2018-05-02T22:13:07.793Z,94335.79
2018-05-02T22:15:36.258Z,94367.41
2018-05-02T22:18:04.704Z,94387.38
2018-05-02T22:20:33.089Z,94394.55
2018-05-02T22:23:01.525Z,94391.04
2018-05-02T22:25:29.939Z,94394.44
2018-05-02T22:27:58.414Z,94391.17
2018-05-02T22:30:26.791Z,94390.09
2018-05-02T22:32:55.197Z,94388.84
2018-05-02T22:35:23.661Z,94382.84
2018-05-02T22:37:52.101Z,94381.30
2018-05-02T22:40:20.511Z,94383.41
2018-05-02T22:42:48.976Z,94376.42
2018-05-02T22:45:17.384Z,94378.44
2018-05-02T22:47:45.801Z,94384.76
2018-05-02T22:50:14.248Z,94374.46
2018-05-02T22:52:42.640Z,94381.08
2018-05-02T22:55:11.034Z,94375.39
2018-05-02T22:57:39.480Z,94380.30
2018-05-02T23:00:07.905Z,94381.65
2018-05-02T23:02:36.128Z,94381.16
2018-05-02T23:05:04.537Z,94386.91
2018-05-02T23:07:32.977Z,94384.97
2018-05-02T23:10:01.391Z,94382.66
2018-05-02T23:12:29.872Z,94385.09
2018-05-02T23:14:58.256Z,94375.02
2018-05-02T23:17:26.696Z,94381.98
2018-05-02T23:19:55.096Z,94373.07
2018-05-02T23:22:24.377Z,94371.09
2018-05-02T23:24:52.790Z,94371.48
2018-05-02T23:27:21.217Z,94366.75
2018-05-02T23:29:49.639Z,94371.88
2018-05-02T23:32:18.066Z,94366.91
2018-05-02T23:34:46.500Z,94368.09
2018-05-02T23:37:14.944Z,94368.58
2018-05-02T23:39:43.336Z,94372.52
2018-05-02T23:42:11.793Z,94372.80
2018-05-02T23:44:40.178Z,94350.25
2018-05-02T23:47:08.626Z,94369.89
2018-05-02T23:49:37.047Z,94371.83
2018-05-02T23:52:05.503Z,94369.00
2018-05-02T23:54:33.903Z,94367.50
2018-05-02T23:57:02.307Z,94370.03
2018-05-02T23:59:30.759Z,94366.36
